Strandquist, Minnesota
Current Conditions -  °F | °C
As of 2:15 PM on Wednesday 28 Jan 2015 (Local Time) from KHCO Reporting Station
Moderate Fog Moderate Fog  
Wind Chill: 34°   Ceiling: 300
Heat Index: 34°   Visibility: 0.5mi
Dew Point: 32°   Wind: 0mph
Humidity: 93%   Direction: NA
Pressure: 29.78"   Gusts: NA
Location:  48.49°N, 96.45°W
Report Text: KHCO 282015Z AUTO 00000KT 1/2SM FG OVC003 01/00 A2978 RMK AO2
Loading
Personal Weather Stations






























Interactive Weather Map New forecast layout! Learn more

10-Day Weather Forecast

Advertisements
Track Severe Weather on mobile